Garrett, Indiana
Current Conditions -  °F | °C
As of 3:55 PM on Sunday 21 Dec 2014 (Local Time) from KGWB Reporting Station
Scattered Clouds Scattered Clouds  
Wind Chill: 28°   Ceiling: Unl
Heat Index: 34°   Visibility: 7mi
Dew Point: 27°   Wind: 7mph
Humidity: 75%   Direction: 140°SE
Pressure: 30.19"   Gusts: NA
Location:  41.35°N, 85.13°W
Report Text: KGWB 212055Z AUTO 14006KT 7SM SCT050 01/M03 A3019 RMK AO2
Loading
Personal Weather Stations






























Interactive Weather Map New forecast layout! Learn more

10-Day Weather Forecast

Advertisements
Track Severe Weather on mobile